sensor_id;sensor_type;location;lat;lon;timestamp;temperature;humidity
30520;DHT22;17300;50.374;8.006;2023-10-13T00:01:08;20.60;66.50
30520;DHT22;17300;50.374;8.006;2023-10-13T00:03:37;20.50;66.50
30520;DHT22;17300;50.374;8.006;2023-10-13T00:06:06;20.50;66.50
30520;DHT22;17300;50.374;8.006;2023-10-13T00:08:33;20.50;66.70
30520;DHT22;17300;50.374;8.006;2023-10-13T00:11:02;20.50;66.70
30520;DHT22;17300;50.374;8.006;2023-10-13T00:13:31;20.40;66.70
30520;DHT22;17300;50.374;8.006;2023-10-13T00:16:07;20.40;66.80
30520;DHT22;17300;50.374;8.006;2023-10-13T00:18:35;20.40;66.80
30520;DHT22;17300;50.374;8.006;2023-10-13T00:21:07;20.40;67.00
30520;DHT22;17300;50.374;8.006;2023-10-13T00:23:39;20.40;67.10
30520;DHT22;17300;50.374;8.006;2023-10-13T00:26:09;20.40;67.10
30520;DHT22;17300;50.374;8.006;2023-10-13T00:28:37;20.30;67.10
30520;DHT22;17300;50.374;8.006;2023-10-13T00:31:11;20.30;67.20
30520;DHT22;17300;50.374;8.006;2023-10-13T00:33:38;20.30;67.20
30520;DHT22;17300;50.374;8.006;2023-10-13T00:36:06;20.30;67.30
30520;DHT22;17300;50.374;8.006;2023-10-13T00:38:34;20.30;67.30
30520;DHT22;17300;50.374;8.006;2023-10-13T00:41:02;20.30;67.30
30520;DHT22;17300;50.374;8.006;2023-10-13T00:43:45;20.30;67.40
30520;DHT22;17300;50.374;8.006;2023-10-13T00:46:30;20.30;67.50
30520;DHT22;17300;50.374;8.006;2023-10-13T00:48:59;20.30;67.40
30520;DHT22;17300;50.374;8.006;2023-10-13T00:51:26;20.30;67.40
30520;DHT22;17300;50.374;8.006;2023-10-13T00:53:59;20.30;67.50
30520;DHT22;17300;50.374;8.006;2023-10-13T00:56:28;20.20;67.50
30520;DHT22;17300;50.374;8.006;2023-10-13T00:58:55;20.20;67.40
30520;DHT22;17300;50.374;8.006;2023-10-13T01:01:23;20.20;67.40
30520;DHT22;17300;50.374;8.006;2023-10-13T01:03:56;20.20;67.40
30520;DHT22;17300;50.374;8.006;2023-10-13T01:06:25;20.20;67.40
30520;DHT22;17300;50.374;8.006;2023-10-13T01:08:58;20.20;67.40
30520;DHT22;17300;50.374;8.006;2023-10-13T01:11:37;20.20;68.00
30520;DHT22;17300;50.374;8.006;2023-10-13T01:14:04;20.20;67.50
30520;DHT22;17300;50.374;8.006;2023-10-13T01:16:31;20.20;68.00
30520;DHT22;17300;50.374;8.006;2023-10-13T01:18:58;20.20;68.00
30520;DHT22;17300;50.374;8.006;2023-10-13T01:21:25;20.30;68.20
30520;DHT22;17300;50.374;8.006;2023-10-13T01:23:55;20.30;68.20
30520;DHT22;17300;50.374;8.006;2023-10-13T01:26:21;20.30;68.30
30520;DHT22;17300;50.374;8.006;2023-10-13T01:28:50;20.30;68.20
30520;DHT22;17300;50.374;8.006;2023-10-13T01:31:17;20.30;68.20
30520;DHT22;17300;50.374;8.006;2023-10-13T01:33:51;20.30;68.10
30520;DHT22;17300;50.374;8.006;2023-10-13T01:36:21;20.40;68.20
30520;DHT22;17300;50.374;8.006;2023-10-13T01:38:47;20.40;68.20
30520;DHT22;17300;50.374;8.006;2023-10-13T01:41:15;20.40;68.20
30520;DHT22;17300;50.374;8.006;2023-10-13T01:43:41;20.40;68.20
30520;DHT22;17300;50.374;8.006;2023-10-13T01:46:09;20.40;68.20
30520;DHT22;17300;50.374;8.006;2023-10-13T01:48:34;20.50;68.30
30520;DHT22;17300;50.374;8.006;2023-10-13T01:51:04;20.40;68.10
30520;DHT22;17300;50.374;8.006;2023-10-13T01:53:34;20.50;68.20
30520;DHT22;17300;50.374;8.006;2023-10-13T01:56:08;20.50;68.10
30520;DHT22;17300;50.374;8.006;2023-10-13T01:58:39;20.50;68.50
30520;DHT22;17300;50.374;8.006;2023-10-13T02:01:08;20.50;68.10
30520;DHT22;17300;50.374;8.006;2023-10-13T02:03:34;20.50;67.70
30520;DHT22;17300;50.374;8.006;2023-10-13T02:06:07;20.50;67.70
30520;DHT22;17300;50.374;8.006;2023-10-13T02:08:35;20.50;67.70
30520;DHT22;17300;50.374;8.006;2023-10-13T02:11:05;20.50;67.80
30520;DHT22;17300;50.374;8.006;2023-10-13T02:13:32;20.50;67.70
30520;DHT22;17300;50.374;8.006;2023-10-13T02:16:08;20.50;67.90
30520;DHT22;17300;50.374;8.006;2023-10-13T02:18:34;20.50;68.10
30520;DHT22;17300;50.374;8.006;2023-10-13T02:21:07;20.50;68.10
30520;DHT22;17300;50.374;8.006;2023-10-13T02:23:38;20.50;68.10
30520;DHT22;17300;50.374;8.006;2023-10-13T02:26:09;20.50;68.20
30520;DHT22;17300;50.374;8.006;2023-10-13T02:28:38;20.50;68.20
30520;DHT22;17300;50.374;8.006;2023-10-13T02:31:05;20.50;68.20
30520;DHT22;17300;50.374;8.006;2023-10-13T02:33:33;20.50;68.10
30520;DHT22;17300;50.374;8.006;2023-10-13T02:36:10;20.50;68.20
30520;DHT22;17300;50.374;8.006;2023-10-13T02:38:37;20.50;67.90
30520;DHT22;17300;50.374;8.006;2023-10-13T02:41:11;20.50;67.90
30520;DHT22;17300;50.374;8.006;2023-10-13T02:43:37;20.50;67.80
30520;DHT22;17300;50.374;8.006;2023-10-13T02:46:04;20.50;67.90
30520;DHT22;17300;50.374;8.006;2023-10-13T02:48:30;20.50;67.90
30520;DHT22;17300;50.374;8.006;2023-10-13T02:51:07;20.40;67.70
30520;DHT22;17300;50.374;8.006;2023-10-13T02:53:41;20.40;67.60
30520;DHT22;17300;50.374;8.006;2023-10-13T02:56:08;20.40;67.60
30520;DHT22;17300;50.374;8.006;2023-10-13T02:58:34;20.40;67.70
30520;DHT22;17300;50.374;8.006;2023-10-13T03:01:06;20.40;67.60
30520;DHT22;17300;50.374;8.006;2023-10-13T03:03:43;20.30;67.70
30520;DHT22;17300;50.374;8.006;2023-10-13T03:06:14;20.30;67.50
30520;DHT22;17300;50.374;8.006;2023-10-13T03:08:40;20.30;67.50
30520;DHT22;17300;50.374;8.006;2023-10-13T03:11:08;20.30;67.50
30520;DHT22;17300;50.374;8.006;2023-10-13T03:13:35;20.20;67.40
30520;DHT22;17300;50.374;8.006;2023-10-13T03:16:11;20.20;67.40
30520;DHT22;17300;50.374;8.006;2023-10-13T03:18:36;20.20;68.10
30520;DHT22;17300;50.374;8.006;2023-10-13T03:21:03;20.10;67.50
30520;DHT22;17300;50.374;8.006;2023-10-13T03:23:34;20.10;67.80
30520;DHT22;17300;50.374;8.006;2023-10-13T03:26:12;20.10;67.90
30520;DHT22;17300;50.374;8.006;2023-10-13T03:28:42;20.10;67.90
30520;DHT22;17300;50.374;8.006;2023-10-13T03:31:12;20.00;67.90
30520;DHT22;17300;50.374;8.006;2023-10-13T03:33:43;20.00;68.10
30520;DHT22;17300;50.374;8.006;2023-10-13T03:36:11;20.00;68.20
30520;DHT22;17300;50.374;8.006;2023-10-13T03:38:59;20.00;68.20
30520;DHT22;17300;50.374;8.006;2023-10-13T03:41:26;20.00;68.20
30520;DHT22;17300;50.374;8.006;2023-10-13T03:43:55;20.00;68.30
30520;DHT22;17300;50.374;8.006;2023-10-13T03:46:34;20.00;68.40
30520;DHT22;17300;50.374;8.006;2023-10-13T03:49:01;20.00;68.40
30520;DHT22;17300;50.374;8.006;2023-10-13T03:51:31;20.00;68.50
30520;DHT22;17300;50.374;8.006;2023-10-13T03:54:00;20.00;68.60
30520;DHT22;17300;50.374;8.006;2023-10-13T03:56:32;20.00;68.70
30520;DHT22;17300;50.374;8.006;2023-10-13T03:59:06;20.00;68.70
30520;DHT22;17300;50.374;8.006;2023-10-13T04:01:36;20.00;68.80
30520;DHT22;17300;50.374;8.006;2023-10-13T04:04:12;20.00;68.80
30520;DHT22;17300;50.374;8.006;2023-10-13T04:06:40;20.10;68.90
30520;DHT22;17300;50.374;8.006;2023-10-13T04:09:20;20.10;69.00
30520;DHT22;17300;50.374;8.006;2023-10-13T04:12:05;20.10;69.00
30520;DHT22;17300;50.374;8.006;2023-10-13T04:15:01;20.10;68.80
30520;DHT22;17300;50.374;8.006;2023-10-13T04:17:47;20.10;68.70
30520;DHT22;17300;50.374;8.006;2023-10-13T04:20:15;20.10;68.70
30520;DHT22;17300;50.374;8.006;2023-10-13T04:22:58;20.10;68.80
30520;DHT22;17300;50.374;8.006;2023-10-13T04:25:52;20.10;68.80
30520;DHT22;17300;50.374;8.006;2023-10-13T04:28:33;20.10;68.80
30520;DHT22;17300;50.374;8.006;2023-10-13T04:31:17;20.20;68.90
30520;DHT22;17300;50.374;8.006;2023-10-13T04:34:06;20.20;69.00
30520;DHT22;17300;50.374;8.006;2023-10-13T04:36:41;20.20;68.90
30520;DHT22;17300;50.374;8.006;2023-10-13T04:39:11;20.20;69.00
30520;DHT22;17300;50.374;8.006;2023-10-13T04:41:43;20.20;69.00
30520;DHT22;17300;50.374;8.006;2023-10-13T04:44:23;20.20;69.00
30520;DHT22;17300;50.374;8.006;2023-10-13T04:47:13;20.30;69.00
30520;DHT22;17300;50.374;8.006;2023-10-13T04:49:47;20.30;69.00
30520;DHT22;17300;50.374;8.006;2023-10-13T04:52:17;20.30;69.00
30520;DHT22;17300;50.374;8.006;2023-10-13T04:55:16;20.30;69.00
30520;DHT22;17300;50.374;8.006;2023-10-13T04:57:51;20.30;68.90
30520;DHT22;17300;50.374;8.006;2023-10-13T05:00:25;20.30;68.90
30520;DHT22;17300;50.374;8.006;2023-10-13T05:03:10;20.30;68.80
30520;DHT22;17300;50.374;8.006;2023-10-13T05:05:54;20.40;68.80
30520;DHT22;17300;50.374;8.006;2023-10-13T05:08:34;20.30;68.70
30520;DHT22;17300;50.374;8.006;2023-10-13T05:11:18;20.30;68.70
30520;DHT22;17300;50.374;8.006;2023-10-13T05:14:15;20.30;68.70
30520;DHT22;17300;50.374;8.006;2023-10-13T05:16:59;20.30;68.60
30520;DHT22;17300;50.374;8.006;2023-10-13T05:19:43;20.30;68.60
30520;DHT22;17300;50.374;8.006;2023-10-13T05:22:28;20.30;68.50
30520;DHT22;17300;50.374;8.006;2023-10-13T05:25:12;20.30;68.60
30520;DHT22;17300;50.374;8.006;2023-10-13T05:27:56;20.30;68.60
30520;DHT22;17300;50.374;8.006;2023-10-13T05:30:41;20.30;68.70
30520;DHT22;17300;50.374;8.006;2023-10-13T05:33:25;20.20;68.80
30520;DHT22;17300;50.374;8.006;2023-10-13T05:36:11;20.20;68.80
30520;DHT22;17300;50.374;8.006;2023-10-13T05:38:55;20.20;68.90
30520;DHT22;17300;50.374;8.006;2023-10-13T05:41:39;20.20;68.90
30520;DHT22;17300;50.374;8.006;2023-10-13T05:44:23;20.20;68.90
30520;DHT22;17300;50.374;8.006;2023-10-13T05:47:14;20.20;69.00
30520;DHT22;17300;50.374;8.006;2023-10-13T05:50:12;20.20;69.00
30520;DHT22;17300;50.374;8.006;2023-10-13T05:52:54;20.20;69.00
30520;DHT22;17300;50.374;8.006;2023-10-13T05:55:39;20.20;69.00
30520;DHT22;17300;50.374;8.006;2023-10-13T05:58:23;20.20;69.00
30520;DHT22;17300;50.374;8.006;2023-10-13T06:01:12;20.20;69.00
30520;DHT22;17300;50.374;8.006;2023-10-13T06:03:57;20.20;69.20
30520;DHT22;17300;50.374;8.006;2023-10-13T06:06:53;20.20;69.20
30520;DHT22;17300;50.374;8.006;2023-10-13T06:09:39;20.20;69.10
30520;DHT22;17300;50.374;8.006;2023-10-13T06:12:24;20.20;69.10
30520;DHT22;17300;50.374;8.006;2023-10-13T06:15:08;20.20;69.10
30520;DHT22;17300;50.374;8.006;2023-10-13T06:18:04;20.20;69.20
30520;DHT22;17300;50.374;8.006;2023-10-13T06:20:49;20.20;69.20
30520;DHT22;17300;50.374;8.006;2023-10-13T06:23:34;20.20;69.40
30520;DHT22;17300;50.374;8.006;2023-10-13T06:26:18;20.20;69.30
30520;DHT22;17300;50.374;8.006;2023-10-13T06:29:02;20.30;69.50
30520;DHT22;17300;50.374;8.006;2023-10-13T06:31:33;20.30;69.60
30520;DHT22;17300;50.374;8.006;2023-10-13T06:34:00;20.30;69.60
30520;DHT22;17300;50.374;8.006;2023-10-13T06:36:30;20.30;69.70
30520;DHT22;17300;50.374;8.006;2023-10-13T06:38:58;20.30;69.80
30520;DHT22;17300;50.374;8.006;2023-10-13T06:41:39;20.40;69.90
30520;DHT22;17300;50.374;8.006;2023-10-13T06:44:06;20.40;69.80
30520;DHT22;17300;50.374;8.006;2023-10-13T06:46:40;20.40;69.80
30520;DHT22;17300;50.374;8.006;2023-10-13T06:49:07;20.40;69.80
30520;DHT22;17300;50.374;8.006;2023-10-13T06:51:37;20.50;70.80
30520;DHT22;17300;50.374;8.006;2023-10-13T06:54:05;20.50;70.10
30520;DHT22;17300;50.374;8.006;2023-10-13T06:56:36;20.50;70.10
30520;DHT22;17300;50.374;8.006;2023-10-13T06:59:05;20.60;70.10
30520;DHT22;17300;50.374;8.006;2023-10-13T07:01:32;20.60;70.00
30520;DHT22;17300;50.374;8.006;2023-10-13T07:04:04;20.70;70.10
30520;DHT22;17300;50.374;8.006;2023-10-13T07:06:40;20.70;70.00
30520;DHT22;17300;50.374;8.006;2023-10-13T07:09:13;20.70;70.00
30520;DHT22;17300;50.374;8.006;2023-10-13T07:12:02;20.80;70.10
30520;DHT22;17300;50.374;8.006;2023-10-13T07:14:32;20.80;70.00
30520;DHT22;17300;50.374;8.006;2023-10-13T07:17:01;20.90;70.00
30520;DHT22;17300;50.374;8.006;2023-10-13T07:19:30;20.80;69.80
30520;DHT22;17300;50.374;8.006;2023-10-13T07:21:58;20.90;69.80
30520;DHT22;17300;50.374;8.006;2023-10-13T07:24:28;20.90;69.90
30520;DHT22;17300;50.374;8.006;2023-10-13T07:26:57;20.90;69.80
30520;DHT22;17300;50.374;8.006;2023-10-13T07:29:29;20.90;69.90
30520;DHT22;17300;50.374;8.006;2023-10-13T07:31:56;21.00;69.90
30520;DHT22;17300;50.374;8.006;2023-10-13T07:34:24;21.00;69.90
30520;DHT22;17300;50.374;8.006;2023-10-13T07:36:52;21.00;70.00
30520;DHT22;17300;50.374;8.006;2023-10-13T07:39:27;21.10;70.20
30520;DHT22;17300;50.374;8.006;2023-10-13T07:41:54;21.10;70.20
30520;DHT22;17300;50.374;8.006;2023-10-13T07:44:29;21.20;70.30
30520;DHT22;17300;50.374;8.006;2023-10-13T07:46:59;21.20;70.30
30520;DHT22;17300;50.374;8.006;2023-10-13T07:49:29;21.30;70.40
30520;DHT22;17300;50.374;8.006;2023-10-13T07:51:58;21.30;70.40
30520;DHT22;17300;50.374;8.006;2023-10-13T07:54:30;21.40;70.40
30520;DHT22;17300;50.374;8.006;2023-10-13T07:56:57;21.50;70.40
30520;DHT22;17300;50.374;8.006;2023-10-13T07:59:23;21.50;70.50
30520;DHT22;17300;50.374;8.006;2023-10-13T08:01:50;21.60;70.70
30520;DHT22;17300;50.374;8.006;2023-10-13T08:04:37;21.70;70.90
30520;DHT22;17300;50.374;8.006;2023-10-13T08:07:04;21.80;70.90
30520;DHT22;17300;50.374;8.006;2023-10-13T08:09:40;21.90;70.90
30520;DHT22;17300;50.374;8.006;2023-10-13T08:12:09;21.90;70.80
30520;DHT22;17300;50.374;8.006;2023-10-13T08:14:37;22.00;70.70
30520;DHT22;17300;50.374;8.006;2023-10-13T08:17:07;22.20;70.70
30520;DHT22;17300;50.374;8.006;2023-10-13T08:19:35;22.30;70.70
30520;DHT22;17300;50.374;8.006;2023-10-13T08:22:08;22.30;70.50
30520;DHT22;17300;50.374;8.006;2023-10-13T08:24:51;22.40;70.40
30520;DHT22;17300;50.374;8.006;2023-10-13T08:27:38;22.50;69.90
30520;DHT22;17300;50.374;8.006;2023-10-13T08:30:15;22.60;70.00
30520;DHT22;17300;50.374;8.006;2023-10-13T08:32:54;22.70;69.90
30520;DHT22;17300;50.374;8.006;2023-10-13T08:35:22;22.80;69.90
30520;DHT22;17300;50.374;8.006;2023-10-13T08:37:59;22.90;70.10
30520;DHT22;17300;50.374;8.006;2023-10-13T08:40:31;23.00;70.40
30520;DHT22;17300;50.374;8.006;2023-10-13T08:43:24;23.10;70.60
30520;DHT22;17300;50.374;8.006;2023-10-13T08:46:05;23.40;73.10
30520;DHT22;17300;50.374;8.006;2023-10-13T08:48:35;23.80;77.40
30520;DHT22;17300;50.374;8.006;2023-10-13T08:51:03;24.40;78.90
30520;DHT22;17300;50.374;8.006;2023-10-13T08:53:36;25.00;78.40
30520;DHT22;17300;50.374;8.006;2023-10-13T08:56:13;25.70;76.60
30520;DHT22;17300;50.374;8.006;2023-10-13T08:58:57;26.30;73.70
30520;DHT22;17300;50.374;8.006;2023-10-13T09:01:32;27.00;74.30
30520;DHT22;17300;50.374;8.006;2023-10-13T09:04:03;27.60;73.40
30520;DHT22;17300;50.374;8.006;2023-10-13T09:06:44;28.10;71.30
30520;DHT22;17300;50.374;8.006;2023-10-13T09:09:13;28.70;68.90
30520;DHT22;17300;50.374;8.006;2023-10-13T09:11:53;29.10;67.20
30520;DHT22;17300;50.374;8.006;2023-10-13T09:14:33;29.40;64.80
30520;DHT22;17300;50.374;8.006;2023-10-13T09:17:05;29.60;63.00
30520;DHT22;17300;50.374;8.006;2023-10-13T09:19:48;29.70;61.10
30520;DHT22;17300;50.374;8.006;2023-10-13T09:22:20;29.70;60.00
30520;DHT22;17300;50.374;8.006;2023-10-13T09:24:53;29.80;59.80
30520;DHT22;17300;50.374;8.006;2023-10-13T09:27:20;29.80;61.60
30520;DHT22;17300;50.374;8.006;2023-10-13T09:29:56;29.90;61.40
30520;DHT22;17300;50.374;8.006;2023-10-13T09:32:21;30.00;60.60
30520;DHT22;17300;50.374;8.006;2023-10-13T09:34:48;30.10;61.10
30520;DHT22;17300;50.374;8.006;2023-10-13T09:37:16;30.30;63.20
30520;DHT22;17300;50.374;8.006;2023-10-13T09:39:46;30.60;64.60
30520;DHT22;17300;50.374;8.006;2023-10-13T09:42:17;31.20;65.50
30520;DHT22;17300;50.374;8.006;2023-10-13T09:44:45;31.80;65.70
30520;DHT22;17300;50.374;8.006;2023-10-13T09:47:22;32.50;61.70
30520;DHT22;17300;50.374;8.006;2023-10-13T09:50:01;32.90;58.40
30520;DHT22;17300;50.374;8.006;2023-10-13T09:52:39;33.30;55.60
30520;DHT22;17300;50.374;8.006;2023-10-13T09:55:13;33.30;54.00
30520;DHT22;17300;50.374;8.006;2023-10-13T09:57:45;33.20;52.00
30520;DHT22;17300;50.374;8.006;2023-10-13T10:00:18;33.00;51.70
30520;DHT22;17300;50.374;8.006;2023-10-13T10:03:08;32.80;50.80
30520;DHT22;17300;50.374;8.006;2023-10-13T10:05:56;32.40;50.80
30520;DHT22;17300;50.374;8.006;2023-10-13T10:08:29;32.10;50.80
30520;DHT22;17300;50.374;8.006;2023-10-13T10:11:13;31.80;51.20
30520;DHT22;17300;50.374;8.006;2023-10-13T10:13:51;31.40;49.90
30520;DHT22;17300;50.374;8.006;2023-10-13T10:16:34;31.10;50.00
30520;DHT22;17300;50.374;8.006;2023-10-13T10:19:03;30.80;49.80
30520;DHT22;17300;50.374;8.006;2023-10-13T10:21:33;30.50;50.60
30520;DHT22;17300;50.374;8.006;2023-10-13T10:24:01;30.20;50.60
30520;DHT22;17300;50.374;8.006;2023-10-13T10:26:30;29.90;50.60
30520;DHT22;17300;50.374;8.006;2023-10-13T10:28:57;29.70;50.70
30520;DHT22;17300;50.374;8.006;2023-10-13T10:31:32;29.40;50.70
30520;DHT22;17300;50.374;8.006;2023-10-13T10:34:11;29.10;50.60
30520;DHT22;17300;50.374;8.006;2023-10-13T10:36:39;28.80;50.60
30520;DHT22;17300;50.374;8.006;2023-10-13T10:39:08;28.60;51.40
30520;DHT22;17300;50.374;8.006;2023-10-13T10:41:37;28.40;51.70
30520;DHT22;17300;50.374;8.006;2023-10-13T10:44:11;28.20;51.90
30520;DHT22;17300;50.374;8.006;2023-10-13T10:46:48;28.10;52.00
30520;DHT22;17300;50.374;8.006;2023-10-13T10:49:23;28.00;52.20
30520;DHT22;17300;50.374;8.006;2023-10-13T10:51:58;27.90;52.40
30520;DHT22;17300;50.374;8.006;2023-10-13T10:54:30;27.80;52.30
30520;DHT22;17300;50.374;8.006;2023-10-13T10:56:57;27.70;52.70
30520;DHT22;17300;50.374;8.006;2023-10-13T10:59:36;27.70;53.00
30520;DHT22;17300;50.374;8.006;2023-10-13T11:02:05;27.70;53.20
30520;DHT22;17300;50.374;8.006;2023-10-13T11:04:34;27.70;53.10
30520;DHT22;17300;50.374;8.006;2023-10-13T11:07:06;27.70;53.10
30520;DHT22;17300;50.374;8.006;2023-10-13T11:09:34;27.70;53.20
30520;DHT22;17300;50.374;8.006;2023-10-13T11:12:12;27.70;53.30
30520;DHT22;17300;50.374;8.006;2023-10-13T11:15:00;27.80;53.80
30520;DHT22;17300;50.374;8.006;2023-10-13T11:17:28;27.90;53.80
30520;DHT22;17300;50.374;8.006;2023-10-13T11:20:11;28.10;55.00
30520;DHT22;17300;50.374;8.006;2023-10-13T11:22:45;28.40;54.70
30520;DHT22;17300;50.374;8.006;2023-10-13T11:25:23;28.70;54.20
30520;DHT22;17300;50.374;8.006;2023-10-13T11:27:55;29.10;53.30
30520;DHT22;17300;50.374;8.006;2023-10-13T11:30:25;29.40;53.50
30520;DHT22;17300;50.374;8.006;2023-10-13T11:33:00;29.70;52.90
30520;DHT22;17300;50.374;8.006;2023-10-13T11:35:31;30.00;51.80
30520;DHT22;17300;50.374;8.006;2023-10-13T11:38:14;30.20;53.10
30520;DHT22;17300;50.374;8.006;2023-10-13T11:40:51;30.50;52.60
30520;DHT22;17300;50.374;8.006;2023-10-13T11:43:33;30.80;52.50
30520;DHT22;17300;50.374;8.006;2023-10-13T11:46:10;31.20;52.10
30520;DHT22;17300;50.374;8.006;2023-10-13T11:48:40;31.50;51.20
30520;DHT22;17300;50.374;8.006;2023-10-13T11:51:09;31.80;50.10
30520;DHT22;17300;50.374;8.006;2023-10-13T11:53:43;32.10;49.40
30520;DHT22;17300;50.374;8.006;2023-10-13T11:56:10;32.40;48.90
30520;DHT22;17300;50.374;8.006;2023-10-13T11:58:37;32.60;48.50
30520;DHT22;17300;50.374;8.006;2023-10-13T12:01:04;32.70;47.90
30520;DHT22;17300;50.374;8.006;2023-10-13T12:03:48;32.90;47.30
30520;DHT22;17300;50.374;8.006;2023-10-13T12:06:34;33.00;46.70
30520;DHT22;17300;50.374;8.006;2023-10-13T12:09:12;33.00;46.00
30520;DHT22;17300;50.374;8.006;2023-10-13T12:12:00;33.00;45.70
30520;DHT22;17300;50.374;8.006;2023-10-13T12:14:27;32.90;45.30
30520;DHT22;17300;50.374;8.006;2023-10-13T12:16:55;32.80;45.00
30520;DHT22;17300;50.374;8.006;2023-10-13T12:19:30;32.60;44.70
30520;DHT22;17300;50.374;8.006;2023-10-13T12:21:58;32.30;44.60
30520;DHT22;17300;50.374;8.006;2023-10-13T12:24:29;32.10;44.90
30520;DHT22;17300;50.374;8.006;2023-10-13T12:27:06;31.90;44.90
30520;DHT22;17300;50.374;8.006;2023-10-13T12:29:44;31.70;45.00
30520;DHT22;17300;50.374;8.006;2023-10-13T12:32:12;31.50;45.10
30520;DHT22;17300;50.374;8.006;2023-10-13T12:34:41;31.30;45.00
30520;DHT22;17300;50.374;8.006;2023-10-13T12:37:26;31.10;45.40
30520;DHT22;17300;50.374;8.006;2023-10-13T12:40:15;30.80;45.40
30520;DHT22;17300;50.374;8.006;2023-10-13T12:43:00;30.60;45.60
30520;DHT22;17300;50.374;8.006;2023-10-13T12:45:46;30.40;45.50
30520;DHT22;17300;50.374;8.006;2023-10-13T12:48:31;30.20;45.50
30520;DHT22;17300;50.374;8.006;2023-10-13T12:51:17;30.00;45.70
30520;DHT22;17300;50.374;8.006;2023-10-13T12:53:47;29.80;45.80
30520;DHT22;17300;50.374;8.006;2023-10-13T12:56:14;29.70;46.10
30520;DHT22;17300;50.374;8.006;2023-10-13T12:58:41;29.60;46.20
30520;DHT22;17300;50.374;8.006;2023-10-13T13:01:17;29.40;46.30
30520;DHT22;17300;50.374;8.006;2023-10-13T13:03:45;29.30;46.70
30520;DHT22;17300;50.374;8.006;2023-10-13T13:06:17;29.30;46.60
30520;DHT22;17300;50.374;8.006;2023-10-13T13:08:44;29.20;46.30
30520;DHT22;17300;50.374;8.006;2023-10-13T13:11:12;29.10;46.50
30520;DHT22;17300;50.374;8.006;2023-10-13T13:13:38;29.10;46.50
30520;DHT22;17300;50.374;8.006;2023-10-13T13:16:05;29.10;46.60
30520;DHT22;17300;50.374;8.006;2023-10-13T13:18:33;29.10;46.50
30520;DHT22;17300;50.374;8.006;2023-10-13T13:21:00;29.10;46.10
30520;DHT22;17300;50.374;8.006;2023-10-13T13:23:29;29.00;46.00
30520;DHT22;17300;50.374;8.006;2023-10-13T13:25:56;29.00;46.00
30520;DHT22;17300;50.374;8.006;2023-10-13T13:28:23;29.00;46.00
30520;DHT22;17300;50.374;8.006;2023-10-13T13:30:50;29.00;45.80
30520;DHT22;17300;50.374;8.006;2023-10-13T13:33:19;28.90;45.70
30520;DHT22;17300;50.374;8.006;2023-10-13T13:35:53;28.90;45.80
30520;DHT22;17300;50.374;8.006;2023-10-13T13:38:20;28.90;45.70
30520;DHT22;17300;50.374;8.006;2023-10-13T13:40:54;28.80;45.90
30520;DHT22;17300;50.374;8.006;2023-10-13T13:43:20;28.80;45.90
30520;DHT22;17300;50.374;8.006;2023-10-13T13:46:03;28.70;45.80
30520;DHT22;17300;50.374;8.006;2023-10-13T13:48:35;28.70;45.90
30520;DHT22;17300;50.374;8.006;2023-10-13T13:51:03;28.70;45.90
30520;DHT22;17300;50.374;8.006;2023-10-13T13:53:31;28.70;46.10
30520;DHT22;17300;50.374;8.006;2023-10-13T13:56:01;28.70;46.10
30520;DHT22;17300;50.374;8.006;2023-10-13T13:58:29;28.70;46.00
30520;DHT22;17300;50.374;8.006;2023-10-13T14:01:00;28.70;45.80
30520;DHT22;17300;50.374;8.006;2023-10-13T14:03:38;28.70;45.50
30520;DHT22;17300;50.374;8.006;2023-10-13T14:06:10;28.70;45.60
30520;DHT22;17300;50.374;8.006;2023-10-13T14:08:43;28.60;45.50
30520;DHT22;17300;50.374;8.006;2023-10-13T14:11:12;28.50;45.50
30520;DHT22;17300;50.374;8.006;2023-10-13T14:14:10;28.40;45.60
30520;DHT22;17300;50.374;8.006;2023-10-13T14:16:40;28.30;45.60
30520;DHT22;17300;50.374;8.006;2023-10-13T14:19:11;28.20;46.40
30520;DHT22;17300;50.374;8.006;2023-10-13T14:21:37;28.10;46.00
30520;DHT22;17300;50.374;8.006;2023-10-13T14:24:05;28.10;46.20
30520;DHT22;17300;50.374;8.006;2023-10-13T14:26:40;28.00;46.20
30520;DHT22;17300;50.374;8.006;2023-10-13T14:29:09;27.90;46.20
30520;DHT22;17300;50.374;8.006;2023-10-13T14:31:39;27.90;46.40
30520;DHT22;17300;50.374;8.006;2023-10-13T14:34:06;27.90;46.40
30520;DHT22;17300;50.374;8.006;2023-10-13T14:36:33;27.80;46.50
30520;DHT22;17300;50.374;8.006;2023-10-13T14:39:01;27.80;46.50
30520;DHT22;17300;50.374;8.006;2023-10-13T14:41:28;27.80;46.50
30520;DHT22;17300;50.374;8.006;2023-10-13T14:43:57;27.80;46.50
30520;DHT22;17300;50.374;8.006;2023-10-13T14:46:30;27.80;46.50
30520;DHT22;17300;50.374;8.006;2023-10-13T14:49:01;27.80;46.60
30520;DHT22;17300;50.374;8.006;2023-10-13T14:51:28;27.70;46.70
30520;DHT22;17300;50.374;8.006;2023-10-13T14:53:55;27.80;46.70
30520;DHT22;17300;50.374;8.006;2023-10-13T14:56:23;27.70;46.70
30520;DHT22;17300;50.374;8.006;2023-10-13T14:58:51;27.80;47.00
30520;DHT22;17300;50.374;8.006;2023-10-13T15:01:21;27.70;46.80
30520;DHT22;17300;50.374;8.006;2023-10-13T15:03:49;27.70;46.80
30520;DHT22;17300;50.374;8.006;2023-10-13T15:06:17;27.70;46.90
30520;DHT22;17300;50.374;8.006;2023-10-13T15:08:46;27.70;46.90
30520;DHT22;17300;50.374;8.006;2023-10-13T15:11:13;27.60;47.10
30520;DHT22;17300;50.374;8.006;2023-10-13T15:13:40;27.60;47.10
30520;DHT22;17300;50.374;8.006;2023-10-13T15:16:13;27.60;47.00
30520;DHT22;17300;50.374;8.006;2023-10-13T15:18:44;27.50;46.80
30520;DHT22;17300;50.374;8.006;2023-10-13T15:21:10;27.50;46.90
30520;DHT22;17300;50.374;8.006;2023-10-13T15:23:38;27.40;46.90
30520;DHT22;17300;50.374;8.006;2023-10-13T15:26:08;27.40;47.00
30520;DHT22;17300;50.374;8.006;2023-10-13T15:28:36;27.30;46.90
30520;DHT22;17300;50.374;8.006;2023-10-13T15:31:10;27.30;47.10
30520;DHT22;17300;50.374;8.006;2023-10-13T15:33:51;27.20;47.00
30520;DHT22;17300;50.374;8.006;2023-10-13T15:36:20;27.10;47.20
30520;DHT22;17300;50.374;8.006;2023-10-13T15:38:47;27.10;47.30
30520;DHT22;17300;50.374;8.006;2023-10-13T15:41:20;27.10;47.30
30520;DHT22;17300;50.374;8.006;2023-10-13T15:43:47;27.00;47.20
30520;DHT22;17300;50.374;8.006;2023-10-13T15:46:16;27.00;47.40
30520;DHT22;17300;50.374;8.006;2023-10-13T15:48:43;26.90;47.30
30520;DHT22;17300;50.374;8.006;2023-10-13T15:51:12;26.90;47.40
30520;DHT22;17300;50.374;8.006;2023-10-13T15:53:39;26.90;47.40
30520;DHT22;17300;50.374;8.006;2023-10-13T15:56:06;26.80;47.40
30520;DHT22;17300;50.374;8.006;2023-10-13T15:58:37;26.70;47.40
30520;DHT22;17300;50.374;8.006;2023-10-13T16:01:03;26.70;47.50
30520;DHT22;17300;50.374;8.006;2023-10-13T16:03:30;26.60;47.50
30520;DHT22;17300;50.374;8.006;2023-10-13T16:05:57;26.60;47.60
30520;DHT22;17300;50.374;8.006;2023-10-13T16:08:26;26.50;47.70